KRME

Griffiss International Airport

Rome, New York, USA
METAR KRME 191753Z 31004KT 10SM FEW032 22/16 A3000 RMK AO2 SLP155 T02220161 10228 20172 56003
Observed Flight Rules
Sep-19 @ 17:53 UTC (52 minutes ago) Visual Flight Rules
Wind Visibility Clouds
310° at 4 knots 10 miles
  • Few at 3,200' AGL
Temperatures Readings
Current 22°C / 72°F
Dewpoint 16°C / 61°F
Humidity 69%
Altimeter 30" Hg
Pressure 1015.5 hPa
Elevation 154
METAR KRME 191753Z 31004KT 10SM FEW032 22/16 A3000 RMK AO2 SLP155 T02220161 10228 20172 56003
Observed Flight Rules
Sep-19 @ 17:53 UTC
(52 minutes ago)
VFR
Wind Visibility
310° at 4 knots 10 miles
Clouds
  • Few at 3,200' AGL
Temperature Dewpoint
22°C / 72°F 16°C / 61°F
Humidity Altimeter Pressure
69% 30" Hg 1015.5 hPa